Flight Track Log - Related Links

Times and Time Zones

All times are in EDT time to prevent confusion due to time zone crossing. See the ASQ4935 flight status page for this flight to view local times or setup timezone preferences in your user account.

Time Position Orientation Groundspeed Altitude Reporting Facility
EDT Latitude Longitude Course Direction KTS MPH feet Rate Location/Type
Mon 01:10:06 PM 33.6500 -84.3667 76° East 185 213 2,500  Level Atlanta TRACON
Mon 01:11:06 PM 33.6667 -84.2833 76° East 252 290 4,600 2,479 Climbing Atlanta TRACON
Mon 01:12:07 PM 33.6833 -84.2000 76° East 273 314 7,500 2,628 Climbing Atlanta TRACON
Mon 01:13:07 PM 33.7500 -84.1833 12° North 301 346 9,900 1,250 Climbing Atlanta TRACON
Mon 01:14:07 PM 33.8500 -84.1833 360° North 360 414 10,000 1,286 Climbing Atlanta TRACON
Mon 01:15:55 PM 34.0278 -84.2769 336° Northwest 377 434 13,500 1,964 Climbing Atlanta Center
Mon 01:16:55 PM 34.1364 -84.2797 359° North 383 441 15,500 1,950 Climbing Atlanta Center
Mon 01:17:55 PM 34.2447 -84.2825 359° North 388 447 17,400 1,650 Climbing Atlanta Center
Mon 01:18:55 PM 34.3575 -84.2678 North 388 447 18,800 1,500 Climbing Atlanta Center
Mon 01:19:55 PM 34.4661 -84.2428 11° North 393 452 20,400 1,550 Climbing Atlanta Center
Mon 01:20:55 PM 34.5789 -84.2153 11° North 399 459 21,900 1,350 Climbing Atlanta Center
Mon 01:21:55 PM 34.6875 -84.1903 11° North 404 465 23,100 1,150 Climbing Atlanta Center
Mon 01:22:55 PM 34.8044 -84.1628 11° North 409 471 24,200 1,100 Climbing Atlanta Center
Mon 01:23:55 PM 34.9233 -84.1350 11° North 421 484 25,300 1,100 Climbing Atlanta Center
Mon 01:24:55 PM 35.0444 -84.1047 12° North 432 497 26,400 1,100 Climbing Atlanta Center
Mon 01:25:55 PM 35.1675 -84.0769 10° North 437 503 27,500 1,100 Climbing Atlanta Center
Mon 01:26:55 PM 35.2906 -84.0464 11° North 437 503 28,600 1,100 Climbing Atlanta Center
Mon 01:27:55 PM 35.4094 -84.0031 17° North 442 509 29,700 950 Climbing Atlanta Center
Mon 01:28:55 PM 35.5283 -83.9494 20° North 442 509 30,500 800 Climbing Atlanta Center
Mon 01:29:55 PM 35.6494 -83.8981 19° North 447 514 31,300 800 Climbing Atlanta Center
Mon 01:30:55 PM 35.7703 -83.8442 20° North 452 520 32,100 800 Climbing Atlanta Center
Mon 01:31:55 PM 35.8911 -83.7928 19° North 452 520 32,900 800 Climbing Atlanta Center
Mon 01:32:55 PM 36.0119 -83.7408 19° North 452 520 33,700 741 Climbing Atlanta Center
Mon 01:34:45 PM 36.2203 -83.6497 19° North 455 524 35,000 453 Climbing Indianapolis Center
Mon 01:35:47 PM 36.3394 -83.5967 20° North 456 525 35,000  Level Indianapolis Center
Mon 01:36:49 PM 36.4592 -83.5433 20° North 457 526 35,000  Level Indianapolis Center
Mon 01:37:51 PM 36.5947 -83.4858 19° North 454 522 35,000  Level Indianapolis Center
Mon 01:38:53 PM 36.7131 -83.4336 19° North 446 513 35,000  Level Indianapolis Center
Mon 01:39:55 PM 36.8308 -83.3806 20° North 446 513 35,000  Level Indianapolis Center
Mon 01:40:57 PM 36.9486 -83.3278 20° North 444 511 35,000  Level Indianapolis Center
Mon 01:41:59 PM 37.0672 -83.2753 19° North 448 516 35,000  Level Indianapolis Center
Mon 01:43:01 PM 37.2061 -83.2158 19° North 446 513 35,000  Level Indianapolis Center
Mon 01:44:03 PM 37.3258 -83.1708 17° North 446 513 35,000  Level Indianapolis Center
Mon 01:45:05 PM 37.4475 -83.1269 16° North 450 518 35,000  Level Indianapolis Center
Mon 01:46:07 PM 37.5678 -83.0803 17° North 451 519 35,000  Level Indianapolis Center
Mon 01:47:09 PM 37.6889 -83.0317 18° North 453 521 35,000  Level Indianapolis Center
Mon 01:48:11 PM 37.8089 -82.9881 16° North 448 516 35,000  Level Indianapolis Center
Mon 01:49:12 PM 37.9483 -82.9367 16° North 446 513 35,000 -341 Level Indianapolis Center
Mon 01:50:14 PM 38.0686 -82.8903 17° North 449 517 34,300 -871 Descending Indianapolis Center
Mon 01:51:16 PM 38.1906 -82.8411 18° North 458 527 33,200 -1,065 Descending Indianapolis Center
Mon 01:52:18 PM 38.3122 -82.7967 16° North 455 524 32,100 -581 Descending Indianapolis Center
Mon 01:53:20 PM 38.4353 -82.7489 17° North 459 528 32,000 -49 Descending Indianapolis Center
Mon 01:54:21 PM 38.5575 -82.7014 17° North 458 527 32,000  Level Indianapolis Center
Mon 01:55:23 PM 38.6903 -82.6500 17° North 468 539 32,000  Level Indianapolis Center
Mon 01:56:25 PM 38.8164 -82.6008 17° North 470 541 32,000  Level Indianapolis Center
Mon 01:57:27 PM 38.9428 -82.5514 17° North 471 542 32,000  Level Indianapolis Center
Mon 01:58:28 PM 39.0694 -82.5025 17° North 474 545 32,000 -98 Level Indianapolis Center
Mon 01:59:30 PM 39.1964 -82.4522 17° North 474 545 31,800 -1,113 Descending Indianapolis Center
Mon 02:00:32 PM 39.3219 -82.4019 17° North 472 543 29,700 -2,293 Descending Indianapolis Center
Mon 02:01:33 PM 39.4628 -82.3450 17° North 439 505 27,100 -2,195 Descending Indianapolis Center
Mon 02:02:35 PM 39.5806 -82.2986 17° North 440 506 25,200 -1,790 Descending Indianapolis Center
Mon 02:03:37 PM 39.6992 -82.2508 17° North 444 511 23,400 -1,756 Descending Indianapolis Center
Mon 02:04:38 PM 39.8164 -82.2042 17° North 438 504 21,600 -1,171 Descending Indianapolis Center
Mon 02:05:40 PM 39.9331 -82.1572 17° North 436 502 21,000 -387 Descending Indianapolis Center
Mon 02:06:42 PM 40.0494 -82.1100 17° North 435 501 20,800 -1,161 Descending Indianapolis Center
Mon 02:07:44 PM 40.1647 -82.0625 17° North 433 498 18,600 -2,000 Descending Indianapolis Center
Mon 02:08:45 PM 40.2789 -82.0169 17° North 415 478 16,700 -2,049 Descending Indianapolis Center
Mon 02:09:47 PM 40.3839 -81.9750 17° North 394 453 14,400 -2,081 Descending Indianapolis Center
Mon 02:10:49 PM 40.4822 -81.9317 19° North 369 425 12,400 -1,790 Descending Indianapolis Center
Mon 02:11:51 PM 40.5667 -81.8486 37° Northeast 322 371 10,700 -1,500 Descending Indianapolis Center
Mon 02:12:53 PM 40.6328 -81.7847 36° Northeast 296 341 9,300 -1,239 Descending Indianapolis Center
Mon 02:13:23 PM 40.6636 -81.7519 39° Northeast 293 337 8,800 -1,400 Descending Cleveland Center
Mon 02:14:23 PM 40.7228 -81.6844 41° Northeast 274 315 7,200 -1,600 Descending Cleveland Center
Mon 02:15:23 PM 40.7775 -81.6169 43° Northeast 268 308 5,600 -1,200 Descending Cleveland Center
Mon 02:16:23 PM 40.8403 -81.5767 26° Northeast 257 296 4,800 -850 Descending Cleveland Center
Mon 02:17:23 PM 40.9072 -81.5667 North 241 277 3,900 -850 Descending Cleveland Center
Mon 02:18:23 PM 40.9614 -81.5703 357° North 227 261 3,100 -600 Descending Cleveland Center
Mon 02:19:23 PM 40.9847 -81.5183 59° Northeast 159 183 2,700 -350 Descending Cleveland Center
Mon 02:20:23 PM 40.9811 -81.4606 95° East 135 155 2,400 -300 Descending Cleveland Center

Login

Don't have an account? Register now (free) for customized features, flight alerts, and more!